createdAt,value
2018-10-17T00:03:14.093Z,101757.31
2018-10-17T00:07:18.351Z,101769.37
2018-10-17T00:11:22.558Z,101760.81
2018-10-17T00:15:26.868Z,101768.65
2018-10-17T00:19:31.096Z,101772.08
2018-10-17T00:23:36.288Z,101769.09
2018-10-17T00:27:40.410Z,101760.47
2018-10-17T00:31:45.379Z,101759.22
2018-10-17T00:35:49.438Z,101751.52
2018-10-17T00:39:53.982Z,101762.66
2018-10-17T00:43:58.462Z,101760.31
2018-10-17T00:48:02.699Z,101765.00
2018-10-17T00:52:06.787Z,101758.69
2018-10-17T00:56:10.900Z,101759.84
2018-10-17T01:00:15.077Z,101758.77
2018-10-17T01:04:19.100Z,101764.36
2018-10-17T01:08:23.574Z,101756.11
2018-10-17T01:12:27.621Z,101761.64
2018-10-17T01:16:31.701Z,101768.86
2018-10-17T01:20:36.227Z,101766.38
2018-10-17T01:24:40.220Z,101770.52
2018-10-17T01:28:44.696Z,101767.69
2018-10-17T01:32:48.804Z,101767.08
2018-10-17T01:36:52.951Z,101770.20
2018-10-17T01:40:57.071Z,101775.56
2018-10-17T01:45:01.123Z,101770.43
2018-10-17T01:49:05.471Z,101775.22
2018-10-17T01:53:09.567Z,101769.44
2018-10-17T01:57:14.009Z,101774.88
2018-10-17T02:01:18.064Z,101767.36
2018-10-17T02:05:22.199Z,101767.52
2018-10-17T02:09:27.063Z,101756.95
2018-10-17T02:13:31.449Z,101756.70
2018-10-17T02:17:35.653Z,101759.88
2018-10-17T02:21:40.008Z,101748.58
2018-10-17T02:25:44.259Z,101746.31
2018-10-17T02:29:48.265Z,101747.09
2018-10-17T02:33:52.455Z,101747.63
2018-10-17T02:37:56.799Z,101750.40
2018-10-17T02:42:01.101Z,101751.87
2018-10-17T02:46:05.461Z,101756.53
2018-10-17T02:50:11.514Z,101753.22
2018-10-17T02:54:15.583Z,101750.09
2018-10-17T02:58:19.762Z,101755.50
2018-10-17T03:02:23.956Z,101760.45
2018-10-17T03:06:27.989Z,101763.95
2018-10-17T03:10:32.291Z,101764.42
2018-10-17T03:14:36.290Z,101763.04
2018-10-17T03:18:40.392Z,101770.17
2018-10-17T03:22:45.491Z,101778.09
2018-10-17T03:26:49.557Z,101772.50
2018-10-17T03:30:53.729Z,101782.65
2018-10-17T03:34:57.724Z,101780.86
2018-10-17T03:39:02.020Z,101786.14
2018-10-17T03:43:06.123Z,101788.87
2018-10-17T03:47:10.491Z,101789.05
2018-10-17T03:51:14.940Z,101799.23
2018-10-17T03:55:19.054Z,101799.76
2018-10-17T03:59:23.073Z,101795.15
2018-10-17T04:03:27.034Z,101796.84
2018-10-17T04:07:31.093Z,101798.42
2018-10-17T04:11:35.455Z,101797.55
2018-10-17T04:15:39.495Z,101800.27
2018-10-17T04:19:44.087Z,101800.80
2018-10-17T04:23:48.108Z,101799.06
2018-10-17T04:27:54.407Z,101799.32
2018-10-17T04:31:58.626Z,101796.44
2018-10-17T04:36:02.775Z,101803.48
2018-10-17T04:40:06.735Z,101791.80
2018-10-17T04:44:11.732Z,101788.78
2018-10-17T04:48:17.245Z,101793.37
2018-10-17T04:52:21.302Z,101790.93
2018-10-17T04:56:25.698Z,101785.85
2018-10-17T05:00:29.806Z,101786.89
2018-10-17T05:04:33.944Z,101789.67
2018-10-17T05:08:38.776Z,101782.91
2018-10-17T05:12:43.485Z,101778.58
2018-10-17T05:16:47.522Z,101779.48
2018-10-17T05:20:51.549Z,101784.51
2018-10-17T05:24:55.681Z,101781.59
2018-10-17T05:28:59.986Z,101781.65
2018-10-17T05:33:04.098Z,101789.75
2018-10-17T05:37:08.148Z,101798.70
2018-10-17T05:41:12.304Z,101798.84
2018-10-17T05:45:16.392Z,101802.52
2018-10-17T05:49:20.447Z,101798.28
2018-10-17T05:53:24.741Z,101799.17
2018-10-17T05:57:28.833Z,101808.59
2018-10-17T06:01:33.115Z,101816.21
2018-10-17T06:05:37.220Z,101818.47
2018-10-17T06:09:41.193Z,101824.25
2018-10-17T06:13:45.338Z,101830.51
2018-10-17T06:17:50.934Z,101836.68
2018-10-17T06:21:54.872Z,101837.43
2018-10-17T06:25:58.927Z,101839.03
2018-10-17T06:30:02.915Z,101851.23
2018-10-17T06:34:07.179Z,101850.89
2018-10-17T06:38:11.045Z,101856.78
2018-10-17T06:42:15.377Z,101859.38
2018-10-17T06:46:19.549Z,101860.70
2018-10-17T06:50:23.561Z,101868.11
2018-10-17T06:54:28.050Z,101866.17
2018-10-17T06:58:32.001Z,101866.97
2018-10-17T07:02:36.017Z,101869.94
2018-10-17T07:06:39.988Z,101873.62
2018-10-17T07:10:44.390Z,101876.35
2018-10-17T07:14:48.402Z,101876.53
2018-10-17T07:18:53.434Z,101871.55
2018-10-17T07:22:57.494Z,101868.92
2018-10-17T07:27:01.796Z,101871.30
2018-10-17T07:31:06.027Z,101876.38
2018-10-17T07:35:10.714Z,101881.49
2018-10-17T07:39:14.890Z,101882.28
2018-10-17T07:43:18.881Z,101881.89
2018-10-17T07:47:23.408Z,101881.49
2018-10-17T07:51:27.613Z,101885.03
2018-10-17T07:55:31.802Z,101887.30
2018-10-17T07:59:35.917Z,101884.42
2018-10-17T08:03:39.917Z,101889.66
2018-10-17T08:07:44.118Z,101886.70
2018-10-17T08:11:48.546Z,101887.95
2018-10-17T08:15:53.972Z,101893.66
2018-10-17T08:19:57.989Z,101891.92
2018-10-17T08:24:02.635Z,101900.45
2018-10-17T08:28:06.678Z,101900.69
2018-10-17T08:32:11.064Z,101898.85
2018-10-17T08:36:15.475Z,101907.22
2018-10-17T08:40:19.323Z,101909.52
2018-10-17T08:44:24.149Z,101907.73
2018-10-17T08:48:28.106Z,101903.02
2018-10-17T08:52:32.222Z,101910.58
2018-10-17T08:56:36.323Z,101902.10
2018-10-17T09:00:40.348Z,101905.38
2018-10-17T09:04:44.459Z,101905.47
2018-10-17T09:08:48.509Z,101910.72
2018-10-17T09:12:52.509Z,101910.18
2018-10-17T09:16:56.689Z,101904.95
2018-10-17T09:21:01.762Z,101906.05
2018-10-17T09:25:05.428Z,101907.34
2018-10-17T09:29:09.640Z,101913.46
2018-10-17T09:33:13.788Z,101906.05
2018-10-17T09:37:17.801Z,101908.84
2018-10-17T09:41:22.052Z,101896.30
2018-10-17T09:45:26.169Z,101897.91
2018-10-17T09:49:30.145Z,101897.45
2018-10-17T09:53:34.480Z,101890.95
2018-10-17T09:57:38.612Z,101899.02
2018-10-17T10:01:46.695Z,101894.98
2018-10-17T10:05:50.722Z,101895.40
2018-10-17T10:09:55.050Z,101890.42
2018-10-17T10:13:59.219Z,101883.83
2018-10-17T10:18:03.266Z,101882.64
2018-10-17T10:22:07.422Z,101882.57
2018-10-17T10:26:12.006Z,101882.18
2018-10-17T10:30:16.602Z,101877.39
2018-10-17T10:34:20.843Z,101876.83
2018-10-17T10:38:24.885Z,101880.52
2018-10-17T10:42:29.360Z,101874.95
2018-10-17T10:46:33.306Z,101870.88
2018-10-17T10:50:38.495Z,101869.25
2018-10-17T10:54:42.476Z,101864.80
2018-10-17T10:58:47.275Z,101866.02
2018-10-17T11:02:51.225Z,101872.13
2018-10-17T11:06:55.216Z,101870.07
2018-10-17T11:10:59.309Z,101867.58
2018-10-17T11:15:03.831Z,101873.49
2018-10-17T11:19:08.867Z,101870.64
2018-10-17T11:23:13.521Z,101869.09
2018-10-17T11:27:17.634Z,101869.30
2018-10-17T11:31:21.666Z,101867.73
2018-10-17T11:35:26.242Z,101856.17
2018-10-17T11:39:30.301Z,101853.02
2018-10-17T11:43:34.456Z,101863.02
2018-10-17T11:47:39.465Z,101854.52
2018-10-17T11:51:43.526Z,101851.59
2018-10-17T11:55:47.626Z,101849.14
2018-10-17T11:59:52.033Z,101850.05
2018-10-17T12:03:56.432Z,101843.69
2018-10-17T12:08:00.220Z,101838.64
2018-10-17T12:12:05.518Z,101835.03
2018-10-17T12:16:10.067Z,101832.28
2018-10-17T12:20:15.025Z,101829.03
2018-10-17T12:24:19.001Z,101828.78
2018-10-17T12:28:23.374Z,101829.18
2018-10-17T12:32:27.320Z,101823.33
2018-10-17T12:36:31.428Z,101825.33
2018-10-17T12:40:35.743Z,101820.47
2018-10-17T12:44:39.537Z,101820.70
2018-10-17T12:48:43.711Z,101821.25
2018-10-17T12:52:48.216Z,101822.73
2018-10-17T12:56:52.181Z,101822.77
2018-10-17T13:00:56.567Z,101819.80
2018-10-17T13:05:00.528Z,101821.03
2018-10-17T13:09:08.778Z,101824.08
2018-10-17T13:13:12.823Z,101829.39
2018-10-17T13:17:17.321Z,101832.72
2018-10-17T13:21:21.540Z,101820.44
2018-10-17T13:25:26.362Z,101829.02
2018-10-17T13:29:30.415Z,101824.62
2018-10-17T13:33:34.469Z,101824.50
2018-10-17T13:37:38.498Z,101824.38
2018-10-17T13:41:42.655Z,101826.97
2018-10-17T13:45:46.708Z,101826.89
2018-10-17T13:49:51.730Z,101834.91
2018-10-17T13:53:55.715Z,101824.33
2018-10-17T13:57:59.787Z,101820.37
2018-10-17T14:02:04.833Z,101828.14
2018-10-17T14:06:09.021Z,101829.58
2018-10-17T14:10:13.626Z,101839.44
2018-10-17T14:14:17.776Z,101833.73
2018-10-17T14:18:22.120Z,101836.26
2018-10-17T14:22:26.064Z,101842.00
2018-10-17T14:26:30.095Z,101836.50
2018-10-17T14:30:34.234Z,101840.78
2018-10-17T14:34:38.275Z,101842.56
2018-10-17T14:38:42.327Z,101841.16
2018-10-17T14:42:46.301Z,101843.79
2018-10-17T14:46:50.709Z,101846.40
2018-10-17T14:50:55.494Z,101853.30
2018-10-17T14:54:59.717Z,101846.17
2018-10-17T14:59:03.781Z,101852.02
2018-10-17T15:03:07.785Z,101854.62
2018-10-17T15:07:12.045Z,101854.02
2018-10-17T15:11:16.387Z,101861.45
2018-10-17T15:15:20.560Z,101861.53
2018-10-17T15:19:25.270Z,101861.30
2018-10-17T15:23:29.320Z,101863.16
2018-10-17T15:27:33.305Z,101862.20
2018-10-17T15:31:37.368Z,101865.20
2018-10-17T15:35:41.637Z,101871.60
2018-10-17T15:39:45.820Z,101880.44
2018-10-17T15:43:50.605Z,101875.37
2018-10-17T15:47:55.334Z,101874.57
2018-10-17T15:51:59.500Z,101877.95
2018-10-17T15:56:04.124Z,101876.47
2018-10-17T16:00:09.950Z,101885.25
2018-10-17T16:04:14.816Z,101885.66
2018-10-17T16:08:18.891Z,101888.77
2018-10-17T16:12:23.072Z,101890.22
2018-10-17T16:16:27.062Z,101892.35
2018-10-17T16:20:31.138Z,101888.63
2018-10-17T16:24:35.860Z,101893.40
2018-10-17T16:28:39.934Z,101895.52
2018-10-17T16:32:45.027Z,101900.23
2018-10-17T16:36:49.040Z,101908.08
2018-10-17T16:40:53.090Z,101906.31
2018-10-17T16:44:57.404Z,101909.69
2018-10-17T16:49:02.606Z,101921.16
2018-10-17T16:53:06.695Z,101932.63
2018-10-17T16:57:11.255Z,101931.57
2018-10-17T17:01:15.560Z,101942.27
2018-10-17T17:05:19.537Z,101953.11
2018-10-17T17:09:24.744Z,101952.95
2018-10-17T17:13:28.753Z,101956.40
2018-10-17T17:17:32.975Z,101959.19
2018-10-17T17:21:38.029Z,101965.36
2018-10-17T17:25:42.688Z,101973.42
2018-10-17T17:29:46.919Z,101971.96
2018-10-17T17:33:50.778Z,101974.32
2018-10-17T17:37:55.448Z,101985.53
2018-10-17T17:41:59.448Z,101986.42
2018-10-17T17:46:03.734Z,101993.27
2018-10-17T17:50:08.316Z,101992.59
2018-10-17T17:54:12.309Z,101991.47
2018-10-17T17:58:16.946Z,101998.50
2018-10-17T18:02:21.112Z,101998.53
2018-10-17T18:06:25.315Z,101999.89
2018-10-17T18:10:29.241Z,101999.05
2018-10-17T18:14:33.267Z,102006.07
2018-10-17T18:18:37.367Z,102002.20
2018-10-17T18:22:41.773Z,102009.64
2018-10-17T18:26:45.971Z,102006.97
2018-10-17T18:30:50.292Z,102023.55
2018-10-17T18:35:01.331Z,102027.63
2018-10-17T18:39:07.213Z,102029.43
2018-10-17T18:43:11.277Z,102032.31
2018-10-17T18:47:15.392Z,102031.75
2018-10-17T18:51:19.465Z,102032.11
2018-10-17T18:55:23.436Z,102036.10
2018-10-17T18:59:27.531Z,102033.45
2018-10-17T19:03:31.668Z,102034.77
2018-10-17T19:07:35.733Z,102047.40
2018-10-17T19:11:40.610Z,102052.07
2018-10-17T19:15:44.631Z,102051.59
2018-10-17T19:19:48.766Z,102071.44
2018-10-17T19:23:52.803Z,102080.36
2018-10-17T19:27:57.024Z,102079.17
2018-10-17T19:32:01.149Z,102085.52
2018-10-17T19:36:05.808Z,102090.11
2018-10-17T19:40:10.409Z,102087.45
2018-10-17T19:44:14.489Z,102088.34
2018-10-17T19:48:18.501Z,102092.90
2018-10-17T19:52:22.604Z,102094.91
2018-10-17T19:56:26.662Z,102095.77
2018-10-17T20:00:30.884Z,102090.59
2018-10-17T20:04:34.902Z,102091.64
2018-10-17T20:08:39.210Z,102098.56
2018-10-17T20:12:43.195Z,102105.27
2018-10-17T20:16:47.251Z,102102.53
2018-10-17T20:20:51.261Z,102100.03
2018-10-17T20:24:55.470Z,102104.14
2018-10-17T20:28:59.586Z,102101.02
2018-10-17T20:33:03.638Z,102114.78
2018-10-17T20:37:07.605Z,102107.91
2018-10-17T20:41:11.980Z,102110.25
2018-10-17T20:45:15.976Z,102105.38
2018-10-17T20:49:20.333Z,102109.66
2018-10-17T20:53:24.599Z,102105.94
2018-10-17T20:57:28.742Z,102110.69
2018-10-17T21:01:32.665Z,102110.28
2018-10-17T21:05:37.147Z,102120.97
2018-10-17T21:09:41.096Z,102128.25
2018-10-17T21:13:45.324Z,102131.44
2018-10-17T21:17:49.565Z,102135.52
2018-10-17T21:21:53.712Z,102142.94
2018-10-17T21:25:57.771Z,102142.33
2018-10-17T21:30:02.831Z,102141.10
2018-10-17T21:34:06.788Z,102140.32
2018-10-17T21:38:10.910Z,102139.00
2018-10-17T21:42:14.993Z,102144.06
2018-10-17T21:46:18.974Z,102147.53
2018-10-17T21:50:23.012Z,102152.83
2018-10-17T21:54:27.079Z,102153.61
2018-10-17T21:58:31.127Z,102157.22
2018-10-17T22:02:35.194Z,102158.14
2018-10-17T22:06:39.291Z,102158.24
2018-10-17T22:10:43.970Z,102158.91
2018-10-17T22:14:47.883Z,102153.29
2018-10-17T22:18:51.951Z,102156.72
2018-10-17T22:22:56.002Z,102156.41
2018-10-17T22:27:00.242Z,102153.77
2018-10-17T22:31:05.419Z,102162.20
2018-10-17T22:35:09.434Z,102159.00
2018-10-17T22:39:14.883Z,102161.55
2018-10-17T22:43:18.878Z,102164.51
2018-10-17T22:47:22.868Z,102166.23
2018-10-17T22:51:27.029Z,102174.25
2018-10-17T22:55:31.020Z,102169.01
2018-10-17T22:59:35.024Z,102172.45
2018-10-17T23:03:39.676Z,102175.87
2018-10-17T23:07:43.696Z,102172.82
2018-10-17T23:11:48.336Z,102187.13
2018-10-17T23:15:52.400Z,102184.95
2018-10-17T23:19:56.612Z,102191.59
2018-10-17T23:24:00.604Z,102187.86
2018-10-17T23:28:05.305Z,102185.08
2018-10-17T23:32:09.798Z,102192.66
2018-10-17T23:36:13.886Z,102191.30
2018-10-17T23:40:17.974Z,102198.37
2018-10-17T23:44:22.005Z,102199.87
2018-10-17T23:48:26.069Z,102201.42
2018-10-17T23:52:31.518Z,102205.88
2018-10-17T23:56:36.424Z,102199.13
